EWG14T LFLL-LIMC
Flight info
| Callsign | EWG14T |
|---|---|
| Flight time | 1h 1m |
| Altitude | 22000 |
| Route | RISOR T47 GEMLA/N0416F230 DCT VANAS DCT MEDAM DCT NITAM DCT MOGBO DCT KODOK DCT TOP/N0393F190 M135 ASTIG |
| Aircraft | A319/M-SDE3FGHIRWY/LB1 |
Departure
| Time | 2026-05-05 20:58 |
|---|---|
| Airport | Lyon Saint-Exupéry Airport (LFLL) |
Arrival
| Time | 2026-05-05 22:00 |
|---|---|
| Airport | Milan Malpensa International Airport (LIMC) |
| Time | Latitude | Longitude | Altitude | Speed | Heading |
|---|---|---|---|---|---|
| 2026-05-05 20:39 | 45.72406 | 5.08153 | 797 ft | 0 kts | 180° |
| 2026-05-05 20:39 | 45.72404 | 5.08153 | 797 ft | 0 kts | 180° |
| 2026-05-05 20:50 | 45.72424 | 5.08153 | 797 ft | 4 kts | 181° |
| 2026-05-05 20:50 | 45.72450 | 5.08151 | 797 ft | 4 kts | 151° |
| 2026-05-05 20:50 | 45.72459 | 5.08131 | 797 ft | 4 kts | 99° |
| 2026-05-05 20:51 | 45.72461 | 5.08120 | 797 ft | 1 kts | 105° |
| 2026-05-05 20:54 | 45.72461 | 5.08122 | 797 ft | 1 kts | 105° |
| 2026-05-05 20:54 | 45.72460 | 5.08146 | 797 ft | 4 kts | 85° |
| 2026-05-05 20:54 | 45.72478 | 5.08245 | 797 ft | 15 kts | 75° |
| 2026-05-05 20:55 | 45.72522 | 5.08382 | 796 ft | 16 kts | 31° |
| 2026-05-05 20:55 | 45.72636 | 5.08379 | 792 ft | 18 kts | 355° |
| 2026-05-05 20:55 | 45.72770 | 5.08361 | 791 ft | 20 kts | 355° |
| 2026-05-05 20:55 | 45.72912 | 5.08341 | 790 ft | 21 kts | 354° |
| 2026-05-05 20:56 | 45.73068 | 5.08325 | 787 ft | 24 kts | 355° |
| 2026-05-05 20:56 | 45.73245 | 5.08302 | 784 ft | 27 kts | 354° |
| 2026-05-05 20:56 | 45.73444 | 5.08276 | 780 ft | 31 kts | 357° |
| 2026-05-05 20:56 | 45.73644 | 5.08258 | 779 ft | 21 kts | 357° |
| 2026-05-05 20:57 | 45.73733 | 5.08374 | 777 ft | 20 kts | 85° |
| 2026-05-05 20:57 | 45.73706 | 5.08533 | 777 ft | 14 kts | 105° |
| 2026-05-05 20:57 | 45.73672 | 5.08677 | 777 ft | 16 kts | 124° |
| 2026-05-05 20:57 | 45.73566 | 5.08732 | 781 ft | 19 kts | 174° |
| 2026-05-05 20:58 | 45.73318 | 5.08758 | 787 ft | 61 kts | 176° |
| 2026-05-05 20:58 | 45.72692 | 5.08849 | 791 ft | 117 kts | 176° |
| 2026-05-05 20:58 | 45.71713 | 5.08950 | 876 ft | 161 kts | 175° |
| 2026-05-05 20:58 | 45.70547 | 5.09082 | 1422 ft | 177 kts | 176° |
| 2026-05-05 20:59 | 45.69259 | 5.09234 | 2072 ft | 194 kts | 175° |
| 2026-05-05 20:59 | 45.67862 | 5.09448 | 2857 ft | 209 kts | 175° |
| 2026-05-05 20:59 | 45.66374 | 5.09721 | 3733 ft | 222 kts | 174° |
| 2026-05-05 20:59 | 45.64800 | 5.09991 | 4719 ft | 233 kts | 177° |
| 2026-05-05 21:00 | 45.63161 | 5.10168 | 5755 ft | 239 kts | 177° |
| 2026-05-05 21:00 | 45.61518 | 5.10786 | 6552 ft | 260 kts | 150° |
| 2026-05-05 21:00 | 45.60304 | 5.12784 | 7381 ft | 279 kts | 115° |
| 2026-05-05 21:00 | 45.60064 | 5.15559 | 8374 ft | 291 kts | 84° |
| 2026-05-05 21:01 | 45.60397 | 5.18423 | 9424 ft | 294 kts | 88° |
| 2026-05-05 21:01 | 45.60223 | 5.21290 | 10269 ft | 300 kts | 106° |
| 2026-05-05 21:01 | 45.59567 | 5.24236 | 10665 ft | 324 kts | 110° |
| 2026-05-05 21:01 | 45.58831 | 5.27394 | 11016 ft | 346 kts | 110° |
| 2026-05-05 21:02 | 45.58060 | 5.30707 | 11686 ft | 356 kts | 110° |
| 2026-05-05 21:02 | 45.57282 | 5.34088 | 12505 ft | 361 kts | 110° |
| 2026-05-05 21:02 | 45.56500 | 5.37514 | 13358 ft | 366 kts | 110° |
| 2026-05-05 21:02 | 45.55705 | 5.40990 | 13783 ft | 369 kts | 110° |
| 2026-05-05 21:03 | 45.54904 | 5.44489 | 14252 ft | 373 kts | 110° |
| 2026-05-05 21:03 | 45.54090 | 5.48024 | 14959 ft | 377 kts | 111° |
| 2026-05-05 21:03 | 45.53275 | 5.51541 | 15656 ft | 381 kts | 111° |
| 2026-05-05 21:03 | 45.52438 | 5.55148 | 16363 ft | 386 kts | 111° |
| 2026-05-05 21:04 | 45.51608 | 5.58806 | 17066 ft | 391 kts | 109° |
| 2026-05-05 21:04 | 45.51099 | 5.62661 | 17778 ft | 400 kts | 99° |
| 2026-05-05 21:04 | 45.51075 | 5.66661 | 18435 ft | 409 kts | 88° |
| 2026-05-05 21:04 | 45.51447 | 5.70718 | 19067 ft | 414 kts | 85° |
| 2026-05-05 21:05 | 45.51842 | 5.74804 | 19731 ft | 418 kts | 86° |
| 2026-05-05 21:05 | 45.51913 | 5.78923 | 20362 ft | 414 kts | 101° |
| 2026-05-05 21:05 | 45.51268 | 5.82838 | 20975 ft | 411 kts | 111° |
| 2026-05-05 21:05 | 45.50428 | 5.86741 | 21621 ft | 413 kts | 111° |
| 2026-05-05 21:06 | 45.49572 | 5.90660 | 22238 ft | 415 kts | 111° |
| 2026-05-05 21:06 | 45.48704 | 5.94600 | 22776 ft | 418 kts | 111° |
| 2026-05-05 21:06 | 45.47831 | 5.98552 | 22923 ft | 421 kts | 111° |
| 2026-05-05 21:06 | 45.46935 | 6.02593 | 22942 ft | 432 kts | 111° |
| 2026-05-05 21:07 | 45.46030 | 6.06690 | 22942 ft | 434 kts | 111° |
| 2026-05-05 21:07 | 45.45127 | 6.10797 | 22940 ft | 435 kts | 111° |
| 2026-05-05 21:07 | 45.44225 | 6.14908 | 22941 ft | 436 kts | 111° |
| 2026-05-05 21:07 | 45.43306 | 6.19087 | 22941 ft | 448 kts | 111° |
| 2026-05-05 21:08 | 45.42372 | 6.23310 | 22927 ft | 459 kts | 111° |
| 2026-05-05 21:08 | 45.41401 | 6.27682 | 22944 ft | 468 kts | 111° |
| 2026-05-05 21:08 | 45.40417 | 6.32111 | 22942 ft | 470 kts | 111° |
| 2026-05-05 21:08 | 45.39429 | 6.36553 | 22945 ft | 471 kts | 111° |
| 2026-05-05 21:09 | 45.38438 | 6.40995 | 22937 ft | 471 kts | 111° |
| 2026-05-05 21:09 | 45.37442 | 6.45439 | 22945 ft | 471 kts | 111° |
| 2026-05-05 21:09 | 45.36444 | 6.49877 | 22944 ft | 471 kts | 111° |
| 2026-05-05 21:09 | 45.35443 | 6.54321 | 22952 ft | 472 kts | 111° |
| 2026-05-05 21:10 | 45.34447 | 6.58759 | 22927 ft | 471 kts | 111° |
| 2026-05-05 21:10 | 45.33449 | 6.63208 | 22953 ft | 474 kts | 111° |
| 2026-05-05 21:10 | 45.32456 | 6.67611 | 22964 ft | 475 kts | 112° |
| 2026-05-05 21:10 | 45.31444 | 6.72083 | 22954 ft | 475 kts | 112° |
| 2026-05-05 21:11 | 45.30429 | 6.76545 | 22948 ft | 475 kts | 112° |
| 2026-05-05 21:11 | 45.29410 | 6.81010 | 22957 ft | 475 kts | 112° |
| 2026-05-05 21:11 | 45.28393 | 6.85465 | 22957 ft | 475 kts | 112° |
| 2026-05-05 21:11 | 45.27306 | 6.89880 | 22945 ft | 471 kts | 117° |
| 2026-05-05 21:12 | 45.25783 | 6.93959 | 22965 ft | 466 kts | 127° |
| 2026-05-05 21:12 | 45.23817 | 6.97570 | 22950 ft | 460 kts | 137° |
| 2026-05-05 21:12 | 45.21556 | 7.00746 | 22962 ft | 458 kts | 140° |
| 2026-05-05 21:12 | 45.19263 | 7.03891 | 22969 ft | 458 kts | 140° |
| 2026-05-05 21:13 | 45.16976 | 7.07029 | 22974 ft | 457 kts | 140° |
| 2026-05-05 21:13 | 45.14725 | 7.10119 | 22973 ft | 457 kts | 141° |
| 2026-05-05 21:13 | 45.12444 | 7.13249 | 22970 ft | 456 kts | 141° |
| 2026-05-05 21:13 | 45.10265 | 7.16532 | 22973 ft | 461 kts | 133° |
| 2026-05-05 21:14 | 45.08387 | 7.20234 | 22976 ft | 464 kts | 130° |
| 2026-05-05 21:14 | 45.06549 | 7.23959 | 22640 ft | 458 kts | 130° |
| 2026-05-05 21:14 | 45.04736 | 7.27633 | 21640 ft | 454 kts | 130° |
| 2026-05-05 21:14 | 45.02924 | 7.31285 | 21209 ft | 453 kts | 130° |
| 2026-05-05 21:15 | 45.01110 | 7.34922 | 21000 ft | 453 kts | 130° |
| 2026-05-05 21:15 | 44.99376 | 7.38635 | 20978 ft | 450 kts | 124° |
| 2026-05-05 21:15 | 44.98086 | 7.42607 | 20989 ft | 443 kts | 115° |
| 2026-05-05 21:15 | 44.97283 | 7.46755 | 20987 ft | 446 kts | 106° |
| 2026-05-05 21:16 | 44.96662 | 7.51038 | 20990 ft | 445 kts | 106° |
| 2026-05-05 21:16 | 44.96031 | 7.55303 | 20990 ft | 444 kts | 107° |
| 2026-05-05 21:16 | 44.95385 | 7.59567 | 20988 ft | 444 kts | 107° |
| 2026-05-05 21:16 | 44.94731 | 7.63829 | 20872 ft | 444 kts | 107° |
| 2026-05-05 21:17 | 44.94099 | 7.68095 | 20591 ft | 445 kts | 105° |
| 2026-05-05 21:17 | 44.93593 | 7.72408 | 20339 ft | 446 kts | 103° |
| 2026-05-05 21:17 | 44.93198 | 7.76747 | 20090 ft | 446 kts | 101° |
| 2026-05-05 21:17 | 44.92865 | 7.81091 | 19842 ft | 444 kts | 101° |
| 2026-05-05 21:18 | 44.92590 | 7.85430 | 19593 ft | 445 kts | 96° |
| 2026-05-05 21:18 | 44.92685 | 7.89750 | 19353 ft | 448 kts | 90° |
| 2026-05-05 21:18 | 44.92902 | 7.94111 | 18886 ft | 442 kts | 90° |
| 2026-05-05 21:18 | 44.93086 | 7.98428 | 18061 ft | 439 kts | 91° |
| 2026-05-05 21:19 | 44.93243 | 8.02694 | 17335 ft | 432 kts | 91° |
| 2026-05-05 21:19 | 44.93388 | 8.06848 | 17136 ft | 414 kts | 91° |
| 2026-05-05 21:19 | 44.93528 | 8.10801 | 17002 ft | 394 kts | 91° |
| 2026-05-05 21:19 | 44.93666 | 8.14582 | 16870 ft | 377 kts | 91° |
| 2026-05-05 21:20 | 44.93797 | 8.18198 | 16739 ft | 362 kts | 91° |
| 2026-05-05 21:20 | 44.93924 | 8.21673 | 16577 ft | 349 kts | 91° |
| 2026-05-05 21:20 | 44.94044 | 8.25044 | 16390 ft | 339 kts | 91° |
| 2026-05-05 21:20 | 44.94159 | 8.28307 | 16263 ft | 327 kts | 91° |
| 2026-05-05 21:21 | 44.94509 | 8.31373 | 16134 ft | 318 kts | 73° |
| 2026-05-05 21:21 | 44.95564 | 8.34056 | 16006 ft | 309 kts | 50° |
| 2026-05-05 21:21 | 44.97154 | 8.35999 | 15829 ft | 299 kts | 28° |
| 2026-05-05 21:21 | 44.99057 | 8.37050 | 15530 ft | 291 kts | 7° |
| 2026-05-05 21:22 | 45.01039 | 8.37168 | 15213 ft | 282 kts | 347° |
| 2026-05-05 21:22 | 45.02889 | 8.36443 | 14875 ft | 272 kts | 329° |
| 2026-05-05 21:22 | 45.04438 | 8.35015 | 14541 ft | 262 kts | 311° |
| 2026-05-05 21:22 | 45.05576 | 8.33073 | 14216 ft | 253 kts | 295° |
| 2026-05-05 21:23 | 45.06253 | 8.30828 | 14000 ft | 245 kts | 279° |
| 2026-05-05 21:23 | 45.06478 | 8.28460 | 13987 ft | 243 kts | 268° |
| 2026-05-05 21:23 | 45.06463 | 8.26106 | 13980 ft | 242 kts | 263° |
| 2026-05-05 21:23 | 45.06362 | 8.23724 | 13986 ft | 242 kts | 262° |
| 2026-05-05 21:24 | 45.06239 | 8.21351 | 13985 ft | 242 kts | 262° |
| 2026-05-05 21:24 | 45.06117 | 8.18980 | 13985 ft | 242 kts | 263° |
| 2026-05-05 21:24 | 45.06001 | 8.16603 | 13971 ft | 242 kts | 263° |
| 2026-05-05 21:24 | 45.05840 | 8.14237 | 13979 ft | 241 kts | 256° |
| 2026-05-05 21:25 | 45.05337 | 8.12002 | 13978 ft | 238 kts | 242° |
| 2026-05-05 21:25 | 45.04453 | 8.10042 | 13981 ft | 236 kts | 229° |
| 2026-05-05 21:25 | 45.03239 | 8.08486 | 13985 ft | 237 kts | 214° |
| 2026-05-05 21:25 | 45.01768 | 8.07437 | 13988 ft | 239 kts | 200° |
| 2026-05-05 21:26 | 45.00133 | 8.06982 | 13983 ft | 242 kts | 186° |
| 2026-05-05 21:26 | 44.98467 | 8.07167 | 13973 ft | 247 kts | 171° |
| 2026-05-05 21:26 | 44.96843 | 8.08016 | 13964 ft | 253 kts | 156° |
| 2026-05-05 21:26 | 44.95412 | 8.09511 | 13708 ft | 260 kts | 139° |
| 2026-05-05 21:27 | 44.94331 | 8.11585 | 13437 ft | 270 kts | 121° |
| 2026-05-05 21:27 | 44.93679 | 8.14276 | 13178 ft | 306 kts | 102° |
| 2026-05-05 21:27 | 44.93585 | 8.17331 | 12898 ft | 315 kts | 91° |
| 2026-05-05 21:27 | 44.93671 | 8.20424 | 12645 ft | 316 kts | 89° |
| 2026-05-05 21:28 | 44.93824 | 8.23516 | 12388 ft | 315 kts | 88° |
| 2026-05-05 21:28 | 44.93992 | 8.26589 | 12128 ft | 313 kts | 88° |
| 2026-05-05 21:28 | 44.94179 | 8.29640 | 11871 ft | 312 kts | 83° |
| 2026-05-05 21:28 | 44.94912 | 8.32494 | 11853 ft | 311 kts | 59° |
| 2026-05-05 21:29 | 44.96318 | 8.34779 | 11958 ft | 315 kts | 37° |
| 2026-05-05 21:29 | 44.98254 | 8.36181 | 11980 ft | 314 kts | 13° |
| 2026-05-05 21:29 | 45.00402 | 8.36413 | 11980 ft | 309 kts | 349° |
| 2026-05-05 21:29 | 45.02517 | 8.35888 | 11973 ft | 310 kts | 351° |
| 2026-05-05 21:30 | 45.04641 | 8.36355 | 11981 ft | 315 kts | 23° |
| 2026-05-05 21:30 | 45.06460 | 8.38095 | 11985 ft | 317 kts | 38° |
| 2026-05-05 21:30 | 45.08190 | 8.40020 | 11986 ft | 316 kts | 38° |
| 2026-05-05 21:30 | 45.09936 | 8.41911 | 11985 ft | 316 kts | 37° |
| 2026-05-05 21:31 | 45.11702 | 8.43738 | 11981 ft | 311 kts | 35° |
| 2026-05-05 21:31 | 45.13436 | 8.45457 | 11986 ft | 297 kts | 34° |
| 2026-05-05 21:31 | 45.15130 | 8.47088 | 11991 ft | 293 kts | 33° |
| 2026-05-05 21:31 | 45.16817 | 8.48693 | 11984 ft | 292 kts | 33° |
| 2026-05-05 21:32 | 45.18486 | 8.50276 | 11991 ft | 293 kts | 33° |
| 2026-05-05 21:32 | 45.20172 | 8.51876 | 11743 ft | 291 kts | 33° |
| 2026-05-05 21:32 | 45.21821 | 8.53519 | 11439 ft | 289 kts | 41° |
| 2026-05-05 21:32 | 45.23092 | 8.55689 | 11154 ft | 285 kts | 63° |
| 2026-05-05 21:33 | 45.23676 | 8.58330 | 10868 ft | 279 kts | 88° |
| 2026-05-05 21:33 | 45.23467 | 8.61011 | 10581 ft | 272 kts | 112° |
| 2026-05-05 21:33 | 45.22554 | 8.63296 | 10289 ft | 264 kts | 134° |
| 2026-05-05 21:33 | 45.21142 | 8.64895 | 9993 ft | 258 kts | 155° |
| 2026-05-05 21:34 | 45.19451 | 8.65641 | 9681 ft | 254 kts | 175° |
| 2026-05-05 21:34 | 45.17708 | 8.65480 | 9330 ft | 251 kts | 195° |
| 2026-05-05 21:34 | 45.16107 | 8.64527 | 8998 ft | 250 kts | 208° |
| 2026-05-05 21:34 | 45.14588 | 8.63323 | 8672 ft | 250 kts | 211° |
| 2026-05-05 21:35 | 45.13121 | 8.62077 | 8359 ft | 249 kts | 211° |
| 2026-05-05 21:35 | 45.11645 | 8.60799 | 8064 ft | 248 kts | 211° |
| 2026-05-05 21:35 | 45.10172 | 8.59529 | 7973 ft | 248 kts | 211° |
| 2026-05-05 21:35 | 45.08755 | 8.58143 | 7970 ft | 249 kts | 223° |
| 2026-05-05 21:36 | 45.07706 | 8.56205 | 7976 ft | 250 kts | 242° |
| 2026-05-05 21:36 | 45.07190 | 8.53853 | 7976 ft | 252 kts | 262° |
| 2026-05-05 21:36 | 45.07295 | 8.51422 | 7978 ft | 248 kts | 282° |
| 2026-05-05 21:36 | 45.07992 | 8.49201 | 7982 ft | 249 kts | 302° |
| 2026-05-05 21:37 | 45.09212 | 8.47447 | 7982 ft | 253 kts | 324° |
| 2026-05-05 21:37 | 45.10813 | 8.46439 | 7887 ft | 254 kts | 347° |
| 2026-05-05 21:37 | 45.12545 | 8.46430 | 7672 ft | 252 kts | 7° |
| 2026-05-05 21:37 | 45.14242 | 8.46729 | 7544 ft | 239 kts | 7° |
| 2026-05-05 21:38 | 45.15868 | 8.47003 | 7307 ft | 233 kts | 6° |
| 2026-05-05 21:38 | 45.17469 | 8.47268 | 6996 ft | 231 kts | 6° |
| 2026-05-05 21:38 | 45.19060 | 8.47531 | 6659 ft | 230 kts | 6° |
| 2026-05-05 21:38 | 45.20643 | 8.47795 | 6329 ft | 229 kts | 6° |
| 2026-05-05 21:39 | 45.22215 | 8.48057 | 6038 ft | 226 kts | 7° |
| 2026-05-05 21:39 | 45.23775 | 8.48317 | 6001 ft | 226 kts | 7° |
| 2026-05-05 21:39 | 45.25338 | 8.48577 | 6005 ft | 226 kts | 7° |
| 2026-05-05 21:39 | 45.26902 | 8.48838 | 6008 ft | 226 kts | 7° |
| 2026-05-05 21:40 | 45.28459 | 8.49101 | 6008 ft | 225 kts | 7° |
| 2026-05-05 21:40 | 45.30004 | 8.49464 | 6006 ft | 225 kts | 17° |
| 2026-05-05 21:40 | 45.31393 | 8.50398 | 6006 ft | 224 kts | 35° |
| 2026-05-05 21:40 | 45.32528 | 8.51898 | 6007 ft | 223 kts | 53° |
| 2026-05-05 21:41 | 45.33289 | 8.53809 | 6006 ft | 222 kts | 72° |
| 2026-05-05 21:41 | 45.33651 | 8.55935 | 6009 ft | 222 kts | 82° |
| 2026-05-05 21:41 | 45.33942 | 8.58091 | 6009 ft | 222 kts | 81° |
| 2026-05-05 21:41 | 45.34237 | 8.60252 | 6009 ft | 222 kts | 81° |
| 2026-05-05 21:42 | 45.34496 | 8.62419 | 6002 ft | 222 kts | 90° |
| 2026-05-05 21:42 | 45.34189 | 8.64516 | 6009 ft | 217 kts | 119° |
| 2026-05-05 21:42 | 45.33235 | 8.66129 | 6011 ft | 213 kts | 146° |
| 2026-05-05 21:42 | 45.31906 | 8.66927 | 6009 ft | 211 kts | 170° |
| 2026-05-05 21:43 | 45.30463 | 8.67315 | 6010 ft | 211 kts | 171° |
| 2026-05-05 21:43 | 45.29019 | 8.67708 | 6009 ft | 211 kts | 171° |
| 2026-05-05 21:43 | 45.27573 | 8.68103 | 6009 ft | 212 kts | 170° |
| 2026-05-05 21:43 | 45.26128 | 8.68500 | 6009 ft | 212 kts | 170° |
| 2026-05-05 21:44 | 45.24683 | 8.68897 | 6006 ft | 212 kts | 170° |
| 2026-05-05 21:44 | 45.23238 | 8.69296 | 6007 ft | 212 kts | 170° |
| 2026-05-05 21:44 | 45.21793 | 8.69694 | 6007 ft | 211 kts | 171° |
| 2026-05-05 21:44 | 45.20348 | 8.70091 | 6005 ft | 211 kts | 170° |
| 2026-05-05 21:45 | 45.18906 | 8.70488 | 5984 ft | 211 kts | 170° |
| 2026-05-05 21:45 | 45.17479 | 8.70880 | 5984 ft | 212 kts | 170° |
| 2026-05-05 21:45 | 45.16035 | 8.71279 | 5983 ft | 212 kts | 170° |
| 2026-05-05 21:45 | 45.14589 | 8.71677 | 5983 ft | 212 kts | 170° |
| 2026-05-05 21:46 | 45.13143 | 8.72074 | 5982 ft | 212 kts | 170° |
| 2026-05-05 21:46 | 45.11697 | 8.72471 | 5982 ft | 212 kts | 171° |
| 2026-05-05 21:46 | 45.10250 | 8.72866 | 5981 ft | 212 kts | 171° |
| 2026-05-05 21:46 | 45.08802 | 8.73261 | 5982 ft | 212 kts | 170° |
| 2026-05-05 21:47 | 45.07357 | 8.73658 | 5981 ft | 212 kts | 170° |
| 2026-05-05 21:47 | 45.05914 | 8.74056 | 5982 ft | 212 kts | 170° |
| 2026-05-05 21:47 | 45.04491 | 8.74485 | 5977 ft | 213 kts | 163° |
| 2026-05-05 21:47 | 45.03285 | 8.75674 | 5981 ft | 217 kts | 129° |
| 2026-05-05 21:48 | 45.02750 | 8.77665 | 5981 ft | 222 kts | 95° |
| 2026-05-05 21:48 | 45.02956 | 8.79838 | 5987 ft | 224 kts | 81° |
| 2026-05-05 21:48 | 45.03258 | 8.82001 | 5982 ft | 224 kts | 81° |
| 2026-05-05 21:48 | 45.03557 | 8.84162 | 5973 ft | 226 kts | 82° |
| 2026-05-05 21:49 | 45.04017 | 8.86308 | 5975 ft | 233 kts | 61° |
| 2026-05-05 21:49 | 45.05190 | 8.87843 | 5981 ft | 233 kts | 25° |
| 2026-05-05 21:49 | 45.06738 | 8.88219 | 5982 ft | 230 kts | 352° |
| 2026-05-05 21:49 | 45.08307 | 8.87813 | 5983 ft | 229 kts | 347° |
| 2026-05-05 21:50 | 45.09873 | 8.87381 | 5981 ft | 229 kts | 347° |
| 2026-05-05 21:50 | 45.11443 | 8.86948 | 5744 ft | 232 kts | 347° |
| 2026-05-05 21:50 | 45.13060 | 8.86503 | 5257 ft | 237 kts | 347° |
| 2026-05-05 21:50 | 45.14642 | 8.86071 | 5092 ft | 227 kts | 348° |
| 2026-05-05 21:51 | 45.16174 | 8.85653 | 4810 ft | 223 kts | 348° |
| 2026-05-05 21:51 | 45.17695 | 8.85238 | 4479 ft | 222 kts | 348° |
| 2026-05-05 21:51 | 45.19199 | 8.84824 | 4399 ft | 220 kts | 348° |
| 2026-05-05 21:51 | 45.20707 | 8.84410 | 4355 ft | 221 kts | 348° |
| 2026-05-05 21:52 | 45.23701 | 8.83593 | 4256 ft | 221 kts | 348° |
| 2026-05-05 21:52 | 45.25210 | 8.83236 | 4219 ft | 220 kts | 357° |
| 2026-05-05 21:52 | 45.26737 | 8.83188 | 4162 ft | 220 kts | 354° |
| 2026-05-05 21:53 | 45.28246 | 8.82885 | 4057 ft | 219 kts | 349° |
| 2026-05-05 21:53 | 45.29742 | 8.82487 | 3999 ft | 218 kts | 349° |
| 2026-05-05 21:53 | 45.31228 | 8.82079 | 4005 ft | 218 kts | 349° |
| 2026-05-05 21:53 | 45.32719 | 8.81671 | 4007 ft | 218 kts | 349° |
| 2026-05-05 21:54 | 45.34210 | 8.81263 | 4010 ft | 218 kts | 349° |
| 2026-05-05 21:54 | 45.35700 | 8.80856 | 4011 ft | 218 kts | 349° |
| 2026-05-05 21:54 | 45.37172 | 8.80454 | 4008 ft | 218 kts | 349° |
| 2026-05-05 21:54 | 45.38662 | 8.80046 | 4008 ft | 218 kts | 349° |
| 2026-05-05 21:55 | 45.40102 | 8.79652 | 4035 ft | 200 kts | 349° |
| 2026-05-05 21:55 | 45.41419 | 8.79292 | 4006 ft | 188 kts | 349° |
| 2026-05-05 21:55 | 45.42697 | 8.78941 | 4009 ft | 186 kts | 349° |
| 2026-05-05 21:55 | 45.43970 | 8.78592 | 4005 ft | 186 kts | 349° |
| 2026-05-05 21:56 | 45.45243 | 8.78243 | 3936 ft | 186 kts | 349° |
| 2026-05-05 21:56 | 45.46513 | 8.77895 | 3734 ft | 186 kts | 349° |
| 2026-05-05 21:56 | 45.47775 | 8.77548 | 3503 ft | 185 kts | 349° |
| 2026-05-05 21:56 | 45.49035 | 8.77202 | 3264 ft | 184 kts | 349° |
| 2026-05-05 21:57 | 45.50290 | 8.76858 | 3007 ft | 184 kts | 350° |
| 2026-05-05 21:57 | 45.51525 | 8.76518 | 2778 ft | 183 kts | 350° |
| 2026-05-05 21:57 | 45.52773 | 8.76175 | 2531 ft | 183 kts | 350° |
| 2026-05-05 21:57 | 45.54018 | 8.75833 | 2279 ft | 182 kts | 350° |
| 2026-05-05 21:58 | 45.55241 | 8.75496 | 2047 ft | 172 kts | 350° |
| 2026-05-05 21:58 | 45.56327 | 8.75195 | 1825 ft | 150 kts | 351° |
| 2026-05-05 21:58 | 45.57297 | 8.74928 | 1617 ft | 135 kts | 351° |
| 2026-05-05 21:58 | 45.58194 | 8.74681 | 1432 ft | 128 kts | 350° |
| 2026-05-05 21:59 | 45.59053 | 8.74445 | 1265 ft | 123 kts | 350° |
| 2026-05-05 21:59 | 45.59891 | 8.74214 | 1090 ft | 122 kts | 349° |
| 2026-05-05 21:59 | 45.60439 | 8.74063 | 986 ft | 121 kts | 349° |
| 2026-05-05 21:59 | 45.61257 | 8.73830 | 842 ft | 119 kts | 348° |
| 2026-05-05 22:00 | 45.62067 | 8.73605 | 751 ft | 115 kts | 349° |
| 2026-05-05 22:00 | 45.62742 | 8.73419 | 743 ft | 80 kts | 349° |
| 2026-05-05 22:00 | 45.63281 | 8.73275 | 743 ft | 43 kts | 347° |
| 2026-05-05 22:00 | 45.63450 | 8.73223 | 744 ft | 34 kts | 348° |
| 2026-05-05 22:01 | 45.63685 | 8.73109 | 748 ft | 39 kts | 324° |
| 2026-05-05 22:01 | 45.63828 | 8.72891 | 748 ft | 19 kts | 305° |
| 2026-05-05 22:01 | 45.63902 | 8.72738 | 748 ft | 19 kts | 304° |
| 2026-05-05 22:01 | 45.63890 | 8.72592 | 751 ft | 17 kts | 197° |
| 2026-05-05 22:02 | 45.63777 | 8.72615 | 752 ft | 17 kts | 168° |
| 2026-05-05 22:02 | 45.63635 | 8.72655 | 752 ft | 28 kts | 169° |
| 2026-05-05 22:02 | 45.63453 | 8.72706 | 751 ft | 24 kts | 167° |
| 2026-05-05 22:02 | 45.63306 | 8.72745 | 752 ft | 21 kts | 170° |
| 2026-05-05 22:03 | 45.63163 | 8.72780 | 751 ft | 21 kts | 170° |
| 2026-05-05 22:03 | 45.63021 | 8.72820 | 751 ft | 21 kts | 165° |
| 2026-05-05 22:03 | 45.62881 | 8.72861 | 751 ft | 20 kts | 169° |
| 2026-05-05 22:03 | 45.62741 | 8.72898 | 751 ft | 20 kts | 169° |
| 2026-05-05 22:04 | 45.62603 | 8.72937 | 751 ft | 20 kts | 169° |
| 2026-05-05 22:04 | 45.62485 | 8.72905 | 753 ft | 18 kts | 215° |
| 2026-05-05 22:04 | 45.62387 | 8.72811 | 752 ft | 14 kts | 214° |
| 2026-05-05 22:04 | 45.62306 | 8.72732 | 750 ft | 16 kts | 216° |
| 2026-05-05 22:05 | 45.62255 | 8.72579 | 747 ft | 21 kts | 258° |
| 2026-05-05 22:05 | 45.62227 | 8.72360 | 750 ft | 23 kts | 259° |
| 2026-05-05 22:05 | 45.62197 | 8.72130 | 753 ft | 23 kts | 258° |
| 2026-05-05 22:05 | 45.62161 | 8.71982 | 751 ft | 13 kts | 207° |
| 2026-05-05 22:06 | 45.62116 | 8.71918 | 753 ft | 11 kts | 263° |
| 2026-05-05 22:06 | 45.62104 | 8.71821 | 751 ft | 0 kts | 259° |